Time;durP1;ratioP1;P1;durP2;ratioP2;P2;SDS_P1;SDS_P2;PMS_P1;PMS_P2;Temp;Humidity;BMP_temperature;BMP_pressure;BME280_temperature;BME280_humidity;BME280_pressure;Samples;Min_cycle;Max_cycle;Signal;HPM_P1;HPM_P2
2023/01/17 00:01:27;;;;;;;1.67;1.57;;;2.70;99.90;;;;;;5034615;28;20434;-53
2023/01/17 00:12:07;;;;;;;3.40;2.20;;;2.90;99.90;;;;;;5029390;28;20493;-52
2023/01/17 00:14:34;;;;;;;1.80;1.70;;;2.90;99.90;;;;;;5034041;28;20477;-53
2023/01/17 00:17:02;;;;;;;3.93;3.43;;;3.00;99.90;;;;;;5034231;28;20450;-52
2023/01/17 01:34:32;;;;;;;2.77;2.00;;;2.80;99.90;;;;;;5057095;28;20444;-52
2023/01/17 01:36:59;;;;;;;2.90;2.33;;;2.70;99.90;;;;;;5056897;28;20445;-52
2023/01/17 01:39:27;;;;;;;2.97;2.13;;;2.70;99.90;;;;;;5056893;28;20957;-53
2023/01/17 01:41:55;;;;;;;1.97;1.73;;;2.70;99.90;;;;;;5057196;28;20441;-53
2023/01/17 01:44:51;;;;;;;4.13;2.40;;;2.70;99.90;;;;;;5057045;28;20469;-52
2023/01/17 01:47:27;;;;;;;2.47;2.27;;;2.90;99.90;;;;;;5057077;28;20436;-52
2023/01/17 01:49:54;;;;;;;2.30;2.10;;;3.00;99.90;;;;;;5057069;28;20433;-52
2023/01/17 01:52:24;;;;;;;2.43;2.23;;;3.10;99.90;;;;;;5056596;28;20489;-53
2023/01/17 01:54:54;;;;;;;2.40;2.20;;;3.10;99.90;;;;;;5056642;28;20484;-52
2023/01/17 01:57:26;;;;;;;2.53;2.33;;;3.10;99.90;;;;;;5057232;28;20540;-52
2023/01/17 01:59:58;;;;;;;2.90;2.00;;;3.10;99.90;;;;;;5056568;28;20433;-53
2023/01/17 02:02:25;;;;;;;2.20;2.10;;;3.10;99.90;;;;;;5056396;28;20900;-52
2023/01/17 02:04:53;;;;;;;2.40;2.20;;;3.20;99.90;;;;;;5056340;28;20999;-52
2023/01/17 02:07:26;;;;;;;3.97;3.47;;;3.20;99.90;;;;;;5056746;28;20460;-52
2023/01/17 02:09:54;;;;;;;2.27;2.10;;;3.20;99.90;;;;;;5056382;28;20850;-53
2023/01/17 02:12:24;;;;;;;2.63;2.30;;;3.30;99.90;;;;;;5056278;28;20571;-52
2023/01/17 02:14:51;;;;;;;2.47;2.27;;;3.20;99.90;;;;;;5056253;28;20465;-52
2023/01/17 02:17:28;;;;;;;2.57;2.37;;;3.20;99.90;;;;;;5056277;28;20456;-52
2023/01/17 02:20:28;;;;;;;2.37;2.17;;;3.20;99.90;;;;;;5056196;28;20429;-52
2023/01/17 02:23:18;;;;;;;2.27;2.07;;;3.20;99.90;;;;;;5056333;28;20483;-53
2023/01/17 02:26:20;;;;;;;2.33;2.13;;;3.20;99.90;;;;;;5056107;28;20929;-53
2023/01/17 02:29:30;;;;;;;3.67;2.17;;;3.20;99.90;;;;;;5049903;28;20460;-53
2023/01/17 02:32:05;;;;;;;2.17;1.97;;;3.20;99.90;;;;;;5056162;28;20472;-53
2023/01/17 02:34:41;;;;;;;1.93;1.83;;;3.10;99.90;;;;;;5056194;28;20474;-52
2023/01/17 02:37:13;;;;;;;2.30;2.13;;;3.00;99.90;;;;;;5056199;28;20447;-52
2023/01/17 02:39:48;;;;;;;2.33;2.03;;;3.10;99.90;;;;;;5055804;28;20926;-52
2023/01/17 02:42:19;;;;;;;2.63;2.43;;;3.00;99.90;;;;;;5055858;28;20896;-53
2023/01/17 02:44:46;;;;;;;2.27;2.10;;;3.10;99.90;;;;;;5055924;28;20480;-52
2023/01/17 02:47:23;;;;;;;2.13;1.90;;;3.20;99.90;;;;;;5056160;28;20452;-52
2023/01/17 02:49:52;;;;;;;2.47;2.20;;;3.20;99.90;;;;;;5055701;28;20524;-52
2023/01/17 02:52:44;;;;;;;2.30;2.17;;;3.20;99.90;;;;;;5055412;28;21029;-52
2023/01/17 02:55:27;;;;;;;4.10;2.20;;;3.10;99.90;;;;;;5055790;28;20481;-52
2023/01/17 02:58:15;;;;;;;2.50;2.03;;;3.20;99.90;;;;;;5055848;28;20524;-52
2023/01/17 03:00:56;;;;;;;2.07;1.90;;;3.30;99.90;;;;;;5055448;28;20428;-52
2023/01/17 03:03:32;;;;;;;2.30;2.10;;;3.30;99.90;;;;;;5055521;28;20473;-52
2023/01/17 03:06:06;;;;;;;2.40;2.20;;;3.30;99.90;;;;;;5055383;28;20437;-52
2023/01/17 03:08:34;;;;;;;2.53;2.33;;;3.40;99.90;;;;;;5055559;28;20463;-52
2023/01/17 03:11:01;;;;;;;4.07;2.10;;;3.50;99.90;;;;;;5055453;28;20837;-53
2023/01/17 03:13:28;;;;;;;2.33;2.10;;;3.50;99.90;;;;;;5055028;28;20864;-53
2023/01/17 03:15:56;;;;;;;2.53;2.33;;;3.40;99.90;;;;;;5055458;28;20445;-52
2023/01/17 03:18:23;;;;;;;2.40;2.20;;;3.30;99.90;;;;;;5055361;28;20528;-52
2023/01/17 03:20:51;;;;;;;2.37;2.17;;;3.30;99.90;;;;;;5055368;28;20446;-52
2023/01/17 03:23:19;;;;;;;2.47;2.00;;;3.30;99.90;;;;;;5055183;28;20472;-52
2023/01/17 03:25:46;;;;;;;2.10;2.00;;;3.20;99.90;;;;;;5055313;28;20444;-52
2023/01/17 03:28:13;;;;;;;2.37;2.00;;;3.20;99.90;;;;;;5055186;28;20449;-52
2023/01/17 03:30:40;;;;;;;4.20;2.40;;;3.20;99.90;;;;;;5055189;28;20445;-52
2023/01/17 03:33:07;;;;;;;2.50;2.20;;;3.10;99.90;;;;;;5054553;28;20859;-52
2023/01/17 03:35:34;;;;;;;2.23;2.07;;;3.20;99.90;;;;;;5054781;28;21000;-52
2023/01/17 03:38:03;;;;;;;2.50;2.00;;;3.20;99.90;;;;;;5054955;28;20477;-53
2023/01/17 03:40:30;;;;;;;3.57;2.07;;;3.20;99.90;;;;;;5054308;28;20536;-52
2023/01/17 03:42:57;;;;;;;2.50;2.30;;;3.30;99.90;;;;;;5054813;28;20462;-52
2023/01/17 03:45:24;;;;;;;2.50;1.97;;;3.20;99.90;;;;;;5054933;28;20449;-53
2023/01/17 03:47:52;;;;;;;2.33;2.13;;;3.10;99.90;;;;;;5054536;28;20456;-52
2023/01/17 03:50:19;;;;;;;2.47;2.27;;;3.20;99.90;;;;;;5054543;28;20540;-52
2023/01/17 03:52:46;;;;;;;2.00;1.90;;;3.00;99.90;;;;;;5054570;28;20485;-52
2023/01/17 03:55:15;;;;;;;1.60;1.50;;;2.80;99.90;;;;;;5054410;28;20983;-52
2023/01/17 03:57:42;;;;;;;1.77;1.67;;;2.30;99.90;;;;;;5054360;28;20454;-52
2023/01/17 04:00:11;;;;;;;1.90;1.63;;;2.20;99.90;;;;;;5054314;28;20888;-52
2023/01/17 04:02:38;;;;;;;3.20;1.80;;;2.10;99.90;;;;;;5054316;28;20452;-52
2023/01/17 04:05:06;;;;;;;1.70;1.60;;;2.20;99.90;;;;;;5054443;28;20452;-54
2023/01/17 04:07:33;;;;;;;1.90;1.80;;;2.30;99.90;;;;;;5054452;28;20449;-52
2023/01/17 04:10:00;;;;;;;1.87;1.77;;;2.20;99.90;;;;;;5054374;28;20445;-53
2023/01/17 04:12:28;;;;;;;2.30;2.10;;;2.20;99.90;;;;;;5053981;28;21065;-52
2023/01/17 04:14:55;;;;;;;1.90;1.80;;;2.20;99.90;;;;;;5053988;28;20456;-52
2023/01/17 04:17:23;;;;;;;1.70;1.60;;;2.20;99.90;;;;;;5054314;28;20485;-53
2023/01/17 04:19:50;;;;;;;2.00;1.90;;;2.30;99.90;;;;;;5053782;28;20880;-53
2023/01/17 04:22:17;;;;;;;2.03;1.83;;;2.40;99.90;;;;;;5054136;28;20449;-52
2023/01/17 04:24:44;;;;;;;2.07;1.87;;;2.40;99.90;;;;;;5054082;28;20469;-52
2023/01/17 04:27:13;;;;;;;2.10;1.90;;;2.40;99.90;;;;;;5054150;28;20479;-52
2023/01/17 04:29:41;;;;;;;2.03;1.93;;;2.40;99.90;;;;;;5053674;28;20935;-52
2023/01/17 04:32:08;;;;;;;1.93;1.83;;;2.50;99.90;;;;;;5053778;28;20476;-52
2023/01/17 04:34:35;;;;;;;3.40;1.90;;;2.60;99.90;;;;;;5053569;28;20469;-52
2023/01/17 04:37:03;;;;;;;2.20;2.00;;;2.50;99.90;;;;;;5053956;28;20536;-52
2023/01/17 04:39:30;;;;;;;2.20;2.00;;;2.70;99.90;;;;;;5053533;28;20935;-52
2023/01/17 04:41:57;;;;;;;2.60;2.40;;;2.70;99.90;;;;;;5053899;28;20459;-53
2023/01/17 04:44:24;;;;;;;2.13;1.93;;;2.60;99.90;;;;;;5053708;28;20492;-53
2023/01/17 04:46:53;;;;;;;2.20;2.10;;;2.70;99.90;;;;;;5053817;28;20449;-52
2023/01/17 04:49:20;;;;;;;3.00;1.80;;;2.60;99.90;;;;;;5053363;28;20450;-52
2023/01/17 04:51:47;;;;;;;2.37;2.17;;;2.70;99.90;;;;;;5053188;28;20485;-53
2023/01/17 04:54:14;;;;;;;2.30;2.10;;;2.80;99.90;;;;;;5051621;28;20496;-52
2023/01/17 04:56:41;;;;;;;2.60;2.40;;;2.90;99.90;;;;;;5053420;28;20936;-52
2023/01/17 04:59:08;;;;;;;2.77;2.57;;;2.90;99.90;;;;;;5053620;28;20451;-52
2023/01/17 05:01:35;;;;;;;2.50;2.30;;;2.90;99.90;;;;;;5053208;28;20806;-52
2023/01/17 05:04:04;;;;;;;2.80;2.60;;;2.90;99.90;;;;;;5053116;28;20507;-52
2023/01/17 05:06:31;;;;;;;2.83;2.60;;;2.90;99.90;;;;;;5053177;28;20452;-52
2023/01/17 05:08:58;;;;;;;2.53;2.33;;;3.00;99.90;;;;;;5053226;28;20456;-53
2023/01/17 05:11:25;;;;;;;2.53;2.33;;;2.90;99.90;;;;;;5053084;28;20464;-53
2023/01/17 05:13:52;;;;;;;2.60;2.33;;;3.00;99.90;;;;;;5053117;28;21014;-53
2023/01/17 05:16:19;;;;;;;2.63;2.50;;;3.00;99.90;;;;;;5053428;28;20449;-53
2023/01/17 05:18:46;;;;;;;2.60;2.40;;;3.00;99.90;;;;;;5053161;28;20939;-53
2023/01/17 05:21:15;;;;;;;2.60;2.40;;;3.00;99.90;;;;;;5053046;28;20445;-52
2023/01/17 05:23:42;;;;;;;3.03;2.40;;;2.90;99.90;;;;;;5053323;28;20473;-52
2023/01/17 05:26:10;;;;;;;2.70;2.50;;;2.70;99.90;;;;;;5053284;28;20449;-53
2023/01/17 05:28:37;;;;;;;4.10;3.13;;;2.70;99.90;;;;;;5053357;28;20446;-52
2023/01/17 05:31:04;;;;;;;3.20;2.90;;;2.70;99.90;;;;;;5053077;28;20445;-52
2023/01/17 05:33:31;;;;;;;2.30;2.10;;;2.80;99.90;;;;;;5052992;28;20489;-53
2023/01/17 05:35:58;;;;;;;2.60;2.40;;;2.70;99.90;;;;;;5053246;28;20444;-53
2023/01/17 05:38:27;;;;;;;3.00;2.73;;;2.50;99.90;;;;;;5053259;28;20452;-52
2023/01/17 05:40:54;;;;;;;2.73;2.53;;;2.50;99.90;;;;;;5053008;28;20451;-52
2023/01/17 05:43:21;;;;;;;2.87;2.60;;;2.60;99.90;;;;;;5052769;28;20480;-53
2023/01/17 05:45:49;;;;;;;3.00;2.60;;;2.60;99.90;;;;;;5052996;28;20540;-53
2023/01/17 05:48:16;;;;;;;5.00;2.50;;;2.60;99.90;;;;;;5052904;28;20507;-52
2023/01/17 05:50:43;;;;;;;2.70;2.50;;;2.70;99.90;;;;;;5052771;28;20800;-52
2023/01/17 05:53:12;;;;;;;4.30;3.00;;;2.70;99.90;;;;;;5052927;28;20489;-52
2023/01/17 05:55:41;;;;;;;2.93;2.73;;;2.60;99.90;;;;;;5052573;28;20538;-52
2023/01/17 05:58:14;;;;;;;3.07;2.87;;;2.50;99.90;;;;;;5052629;28;20449;-52
2023/01/17 06:00:41;;;;;;;2.60;2.40;;;2.50;99.90;;;;;;5052989;28;20430;-53
2023/01/17 06:03:09;;;;;;;3.73;2.90;;;2.50;99.90;;;;;;5053149;28;20826;-52
2023/01/17 06:05:36;;;;;;;3.60;2.70;;;2.50;99.90;;;;;;5056423;28;20449;-53
2023/01/17 06:08:03;;;;;;;3.17;2.87;;;2.60;99.90;;;;;;5056766;28;20472;-53
2023/01/17 06:10:30;;;;;;;4.73;2.90;;;2.50;99.90;;;;;;5056583;28;20452;-53
2023/01/17 06:13:04;;;;;;;5.20;2.80;;;2.60;99.90;;;;;;5056435;28;20488;-52
2023/01/17 06:15:31;;;;;;;4.27;2.90;;;2.40;99.90;;;;;;5056401;28;20445;-53
2023/01/17 06:18:03;;;;;;;3.07;2.87;;;2.30;99.90;;;;;;5056532;28;20805;-53
2023/01/17 06:20:30;;;;;;;3.07;2.80;;;2.30;99.90;;;;;;5056432;28;20433;-52
2023/01/17 06:23:00;;;;;;;3.53;2.87;;;2.20;99.90;;;;;;5056094;28;20472;-52
2023/01/17 06:25:27;;;;;;;2.33;2.13;;;2.30;99.90;;;;;;5056283;28;20430;-52
2023/01/17 06:27:54;;;;;;;2.87;2.60;;;2.30;99.90;;;;;;5056057;28;21010;-52
2023/01/17 06:30:23;;;;;;;2.77;2.30;;;2.30;99.90;;;;;;5055830;28;20449;-52
2023/01/17 06:32:53;;;;;;;6.37;3.00;;;2.30;99.90;;;;;;5055466;28;20496;-52
2023/01/17 06:35:20;;;;;;;4.43;3.00;;;2.30;99.90;;;;;;5055872;28;20430;-52
2023/01/17 06:37:51;;;;;;;5.50;3.30;;;2.30;99.90;;;;;;5056108;28;20452;-52
2023/01/17 06:40:18;;;;;;;3.73;2.70;;;2.30;99.90;;;;;;5055565;28;20448;-53
2023/01/17 06:42:45;;;;;;;3.30;2.93;;;2.20;99.90;;;;;;5055574;28;20447;-52
2023/01/17 06:45:13;;;;;;;3.73;3.43;;;2.30;99.90;;;;;;5055509;28;20954;-52
2023/01/17 06:47:42;;;;;;;4.30;3.60;;;2.30;99.90;;;;;;5069373;28;20866;-52
2023/01/17 06:50:12;;;;;;;5.80;3.33;;;2.30;99.90;;;;;;5075604;28;20850;-52
2023/01/17 06:52:39;;;;;;;3.87;3.57;;;2.30;99.90;;;;;;5075447;28;20484;-52
2023/01/17 06:55:08;;;;;;;5.53;4.37;;;2.20;99.90;;;;;;5075002;28;20567;-52
2023/01/17 06:57:36;;;;;;;5.00;3.50;;;2.20;99.90;;;;;;5075243;28;20482;-52
2023/01/17 07:00:03;;;;;;;3.90;3.50;;;2.30;99.90;;;;;;5075240;28;20957;-53
2023/01/17 07:02:30;;;;;;;4.40;3.77;;;2.30;99.90;;;;;;5075316;28;20440;-52
2023/01/17 07:04:59;;;;;;;5.27;3.63;;;2.20;99.90;;;;;;5075211;28;20441;-52
2023/01/17 07:07:26;;;;;;;3.67;3.33;;;2.20;99.90;;;;;;5075343;28;20539;-52
2023/01/17 07:09:53;;;;;;;4.60;3.47;;;2.10;99.90;;;;;;5075450;28;20798;-52
2023/01/17 07:12:20;;;;;;;11.23;6.87;;;2.10;99.90;;;;;;5075080;28;20882;-53
2023/01/17 07:14:47;;;;;;;5.13;4.60;;;2.10;99.90;;;;;;5074841;28;20470;-53
2023/01/17 07:17:14;;;;;;;4.87;3.50;;;2.10;99.90;;;;;;5074633;28;20801;-52
2023/01/17 07:19:42;;;;;;;4.17;3.57;;;2.10;99.90;;;;;;5075145;28;20814;-52
2023/01/17 07:22:11;;;;;;;4.93;4.13;;;2.20;99.90;;;;;;5074493;28;20548;-52
2023/01/17 07:24:38;;;;;;;4.43;3.30;;;2.30;99.90;;;;;;5074598;28;20547;-52
2023/01/17 07:27:07;;;;;;;4.40;4.00;;;2.30;99.90;;;;;;5074665;28;20544;-52
2023/01/17 07:29:34;;;;;;;4.40;4.10;;;2.30;99.90;;;;;;5075043;28;20459;-52
2023/01/17 07:32:02;;;;;;;5.33;4.83;;;2.40;99.90;;;;;;5074376;28;20444;-52
2023/01/17 07:34:29;;;;;;;6.47;4.87;;;2.40;99.90;;;;;;5074293;28;20900;-52
2023/01/17 07:36:57;;;;;;;4.60;4.00;;;2.40;99.90;;;;;;5074406;28;20440;-52
2023/01/17 07:39:25;;;;;;;4.90;4.40;;;2.30;99.90;;;;;;5074351;28;20813;-52
2023/01/17 07:41:52;;;;;;;3.53;3.30;;;2.40;99.90;;;;;;5074417;28;20949;-52
2023/01/17 07:44:19;;;;;;;4.23;3.83;;;2.30;99.90;;;;;;5074340;28;20985;-52
2023/01/17 07:46:46;;;;;;;5.80;3.50;;;2.50;99.90;;;;;;5074684;28;20807;-52
2023/01/17 07:49:14;;;;;;;4.57;3.50;;;2.40;99.90;;;;;;5074276;28;20444;-52
2023/01/17 07:51:41;;;;;;;5.93;3.80;;;2.40;99.90;;;;;;5074386;28;20452;-52
2023/01/17 07:54:08;;;;;;;6.93;4.33;;;2.40;99.90;;;;;;5073760;28;21073;-52
2023/01/17 07:56:37;;;;;;;6.80;4.57;;;2.50;99.90;;;;;;5073973;28;20448;-53
2023/01/17 07:59:04;;;;;;;7.37;4.90;;;2.50;99.90;;;;;;5074194;28;20449;-53
2023/01/17 08:01:31;;;;;;;10.30;5.37;;;2.60;99.90;;;;;;5074306;28;20483;-53
2023/01/17 08:03:58;;;;;;;7.43;6.57;;;2.70;99.90;;;;;;5074128;28;20807;-54
2023/01/17 08:06:28;;;;;;;7.70;5.93;;;2.60;99.90;;;;;;5074164;28;20459;-53
2023/01/17 08:08:57;;;;;;;4.77;4.37;;;2.60;99.90;;;;;;5073780;28;20954;-54
2023/01/17 08:11:25;;;;;;;5.33;4.83;;;2.50;99.90;;;;;;5073877;28;20558;-54
2023/01/17 08:13:58;;;;;;;4.77;4.37;;;2.50;99.90;;;;;;5073739;28;20484;-53
2023/01/17 08:16:25;;;;;;;5.17;4.47;;;2.50;99.90;;;;;;5073848;28;20439;-53
2023/01/17 08:18:54;;;;;;;5.00;4.47;;;2.50;99.90;;;;;;5073995;28;20821;-53
2023/01/17 08:21:21;;;;;;;5.40;4.90;;;2.50;99.90;;;;;;5073624;28;20444;-55
2023/01/17 08:23:49;;;;;;;5.83;5.27;;;2.50;99.90;;;;;;5074072;28;20498;-53
2023/01/17 08:26:20;;;;;;;7.50;6.77;;;2.60;99.90;;;;;;5073934;28;20810;-53
2023/01/17 08:28:47;;;;;;;4.70;4.30;;;2.60;99.90;;;;;;5073606;28;20432;-52
2023/01/17 08:31:18;;;;;;;4.90;4.50;;;2.90;99.90;;;;;;5073601;28;20528;-53
2023/01/17 08:33:46;;;;;;;5.13;4.53;;;2.90;99.90;;;;;;5073399;28;20492;-52
2023/01/17 08:36:13;;;;;;;5.00;4.50;;;3.10;99.90;;;;;;5073273;28;20461;-54
2023/01/17 08:38:40;;;;;;;5.33;4.90;;;3.10;99.90;;;;;;5073565;28;20451;-51
2023/01/17 08:41:07;;;;;;;4.77;4.37;;;3.10;99.90;;;;;;5073711;28;20858;-53
2023/01/17 08:43:34;;;;;;;6.33;3.93;;;3.20;99.90;;;;;;5073300;28;20464;-54
2023/01/17 08:46:02;;;;;;;4.80;4.33;;;3.30;99.90;;;;;;5073141;28;20487;-53
2023/01/17 08:48:30;;;;;;;5.10;4.70;;;3.30;99.90;;;;;;5073164;28;20456;-53
2023/01/17 08:51:01;;;;;;;5.80;4.00;;;3.50;99.90;;;;;;5073498;28;20555;-53
2023/01/17 08:53:28;;;;;;;4.50;3.63;;;3.60;99.90;;;;;;5073107;28;20496;-53
2023/01/17 08:55:59;;;;;;;4.10;3.70;;;3.60;99.90;;;;;;5073246;28;20444;-52
2023/01/17 08:58:27;;;;;;;4.20;3.83;;;3.70;99.90;;;;;;5073114;28;20937;-52
2023/01/17 09:00:54;;;;;;;3.80;3.50;;;3.80;99.90;;;;;;5072970;28;20862;-53
2023/01/17 09:03:21;;;;;;;4.90;4.50;;;3.90;99.90;;;;;;5073225;28;20488;-53
2023/01/17 09:05:50;;;;;;;3.10;2.90;;;3.90;99.90;;;;;;5073163;28;20440;-54
2023/01/17 09:08:17;;;;;;;3.43;3.13;;;4.00;99.90;;;;;;5073031;28;20444;-54
2023/01/17 09:10:44;;;;;;;4.20;3.40;;;4.10;99.90;;;;;;5073344;28;20444;-54
2023/01/17 09:13:12;;;;;;;3.53;3.23;;;4.00;99.90;;;;;;5073279;28;20484;-54
2023/01/17 09:15:39;;;;;;;2.90;2.70;;;4.00;99.90;;;;;;5073617;28;20448;-54
2023/01/17 09:18:06;;;;;;;3.13;2.87;;;4.00;99.90;;;;;;5072951;28;20444;-53
2023/01/17 09:20:33;;;;;;;5.70;3.40;;;4.10;99.90;;;;;;5073178;28;20543;-54
2023/01/17 09:23:03;;;;;;;4.20;3.20;;;4.00;99.90;;;;;;5073047;28;20573;-54
2023/01/17 09:25:31;;;;;;;2.97;2.77;;;4.10;99.90;;;;;;5073464;28;20460;-53
2023/01/17 09:27:58;;;;;;;4.10;3.70;;;4.00;99.90;;;;;;5073135;28;20535;-54
2023/01/17 09:30:25;;;;;;;3.90;3.60;;;4.10;99.90;;;;;;5072931;28;20448;-53
2023/01/17 09:32:53;;;;;;;3.90;3.50;;;4.10;99.90;;;;;;5072642;28;20834;-53
2023/01/17 09:35:20;;;;;;;8.17;3.07;;;4.10;99.90;;;;;;5072796;28;20539;-53
2023/01/17 09:37:49;;;;;;;10.67;2.90;;;4.00;99.90;;;;;;5073061;28;20448;-53
2023/01/17 09:40:22;;;;;;;4.70;2.83;;;4.00;99.90;;;;;;5076778;28;20448;-53
2023/01/17 09:42:52;;;;;;;2.90;2.50;;;3.90;99.90;;;;;;5076608;28;20937;-53
2023/01/17 09:45:20;;;;;;;3.20;2.13;;;3.90;99.90;;;;;;5076710;28;20449;-52
2023/01/17 09:47:51;;;;;;;3.67;2.90;;;3.90;99.90;;;;;;5076882;28;20926;-53
2023/01/17 09:50:27;;;;;;;7.60;3.10;;;3.80;99.90;;;;;;5076596;28;20432;-54
2023/01/17 09:53:00;;;;;;;2.70;2.50;;;3.80;99.90;;;;;;5076586;28;20482;-54
2023/01/17 09:55:35;;;;;;;2.07;1.93;;;3.80;99.90;;;;;;5076354;28;20472;-54
2023/01/17 09:58:07;;;;;;;3.10;2.77;;;3.90;99.90;;;;;;5076941;28;20428;-54
2023/01/17 10:00:57;;;;;;;5.30;2.50;;;3.90;99.90;;;;;;5076740;28;20459;-53
2023/01/17 10:03:40;;;;;;;4.03;3.17;;;4.00;99.90;;;;;;5076205;28;20464;-54
2023/01/17 10:06:30;;;;;;;3.90;2.33;;;4.10;99.90;;;;;;5076522;28;20428;-53
2023/01/17 10:09:13;;;;;;;3.50;2.60;;;4.20;99.90;;;;;;5076198;28;20959;-53
2023/01/17 10:11:53;;;;;;;3.10;2.77;;;4.20;99.90;;;;;;5076194;28;20443;-52
2023/01/17 10:14:43;;;;;;;3.83;2.80;;;4.10;99.90;;;;;;5076249;28;20519;-53
2023/01/17 10:17:17;;;;;;;3.40;3.07;;;4.00;99.90;;;;;;5075969;28;20437;-54
2023/01/17 10:20:00;;;;;;;3.80;2.50;;;4.00;99.90;;;;;;5076359;28;20434;-54
2023/01/17 10:22:48;;;;;;;7.87;3.43;;;4.20;99.90;;;;;;5075725;28;20922;-54
2023/01/17 10:25:43;;;;;;;2.73;2.50;;;4.30;99.90;;;;;;5075856;28;20846;-52
2023/01/17 10:28:16;;;;;;;8.83;2.60;;;4.30;99.90;;;;;;5075842;28;20890;-53
2023/01/17 10:30:48;;;;;;;3.23;2.90;;;4.40;99.90;;;;;;5076031;28;20780;-54
2023/01/17 10:33:20;;;;;;;4.50;2.37;;;4.50;99.90;;;;;;5075386;28;20546;-54
2023/01/17 10:35:58;;;;;;;4.40;2.87;;;4.70;99.90;;;;;;5053502;28;20453;-54
2023/01/17 10:38:31;;;;;;;3.20;2.90;;;4.90;99.90;;;;;;5055580;28;20924;-53
2023/01/17 10:41:04;;;;;;;3.87;2.20;;;5.10;99.90;;;;;;5055784;28;20446;-54
2023/01/17 10:43:44;;;;;;;3.10;2.80;;;5.10;99.90;;;;;;5055506;28;20465;-54
2023/01/17 10:46:17;;;;;;;5.30;3.20;;;5.10;99.90;;;;;;5055451;28;20479;-53
2023/01/17 10:48:48;;;;;;;4.10;2.87;;;5.00;99.90;;;;;;5055625;28;20433;-52
2023/01/17 10:52:03;;;;;;;4.33;2.53;;;5.70;99.90;;;;;;5054025;28;20440;-53
2023/01/17 10:54:51;;;;;;;4.90;2.70;;;6.90;99.90;;;;;;5055224;28;20493;-54
2023/01/17 10:57:21;;;;;;;3.33;2.30;;;7.90;99.90;;;;;;5055490;28;20421;-53
2023/01/17 10:59:50;;;;;;;6.70;2.40;;;9.90;99.90;;;;;;5055597;28;20436;-54
2023/01/17 11:02:23;;;;;;;2.67;2.47;;;11.00;99.90;;;;;;5055167;28;20456;-54
2023/01/17 11:04:53;;;;;;;4.50;2.93;;;12.00;99.90;;;;;;5055049;28;20472;-54
2023/01/17 11:07:22;;;;;;;5.10;2.30;;;12.10;97.20;;;;;;5055991;28;20433;-53
2023/01/17 11:09:51;;;;;;;2.50;2.30;;;12.20;97.40;;;;;;5054925;28;20453;-54
2023/01/17 11:12:27;;;;;;;4.13;2.20;;;11.70;95.60;;;;;;5055319;28;20848;-53
2023/01/17 11:15:21;;;;;;;4.13;2.20;;;12.50;94.10;;;;;;5054692;28;20491;-53
2023/01/17 11:17:51;;;;;;;3.40;2.33;;;12.20;92.70;;;;;;5055239;28;20791;-53
2023/01/17 11:20:23;;;;;;;3.47;1.90;;;12.40;91.40;;;;;;5054868;28;20488;-53
2023/01/17 11:23:05;;;;;;;1.97;1.50;;;13.40;93.60;;;;;;5054580;28;20467;-54
2023/01/17 11:25:34;;;;;;;2.17;1.53;;;13.60;90.60;;;;;;5055103;28;20435;-53
2023/01/17 11:28:04;;;;;;;2.90;1.70;;;12.70;82.50;;;;;;5054894;28;20450;-53
2023/01/17 11:30:32;;;;;;;2.37;2.17;;;11.90;85.10;;;;;;5054929;28;20543;-53
2023/01/17 11:33:02;;;;;;;3.57;1.60;;;12.80;86.70;;;;;;5054275;28;20551;-53
2023/01/17 11:35:31;;;;;;;2.40;1.83;;;12.80;83.20;;;;;;5054942;28;20477;-53
2023/01/17 11:38:04;;;;;;;1.83;1.73;;;12.00;84.90;;;;;;5054295;28;21021;-54
2023/01/17 11:40:36;;;;;;;1.87;1.70;;;11.90;83.30;;;;;;5054875;28;20445;-53
2023/01/17 11:43:17;;;;;;;3.90;1.90;;;12.50;83.40;;;;;;5054252;28;20547;-53
2023/01/17 11:45:47;;;;;;;2.83;1.90;;;12.10;90.30;;;;;;5054210;28;20429;-53
2023/01/17 11:48:16;;;;;;;3.23;1.93;;;12.00;81.70;;;;;;5054562;28;20445;-53
2023/01/17 11:50:47;;;;;;;2.83;2.20;;;12.80;87.90;;;;;;5054367;28;20917;-54
2023/01/17 11:53:22;;;;;;;1.90;1.70;;;12.60;77.60;;;;;;5053990;28;20527;-53
2023/01/17 11:56:05;;;;;;;2.23;1.57;;;11.10;78.60;;;;;;5053606;28;20500;-53
2023/01/17 11:58:34;;;;;;;2.20;2.00;;;11.70;83.70;;;;;;5054333;28;20429;-53
2023/01/17 12:01:22;;;;;;;2.80;1.83;;;12.00;80.70;;;;;;5053996;28;20458;-53
2023/01/17 12:04:23;;;;;;;4.10;1.80;;;12.00;82.30;;;;;;5054017;28;20461;-53
2023/01/17 12:07:04;;;;;;;1.93;1.73;;;11.40;84.50;;;;;;5054019;28;20455;-53
2023/01/17 12:09:39;;;;;;;2.20;1.90;;;10.80;86.70;;;;;;5053788;28;20921;-53
2023/01/17 12:15:09;;;;;;;3.10;1.60;;;9.70;83.40;;;;;;5053660;28;20468;-52
2023/01/17 12:17:55;;;;;;;2.53;1.67;;;9.40;85.50;;;;;;5053687;28;20908;-52
2023/01/17 12:20:30;;;;;;;1.90;1.80;;;9.00;83.70;;;;;;5053523;28;20440;-53
2023/01/17 12:23:25;;;;;;;2.77;1.80;;;8.80;82.90;;;;;;5053803;28;20564;-52
2023/01/17 12:26:05;;;;;;;2.87;2.00;;;8.80;86.30;;;;;;5053238;28;20430;-52
2023/01/17 12:28:59;;;;;;;2.30;1.93;;;8.60;88.40;;;;;;5053796;28;20430;-52
2023/01/17 12:31:33;;;;;;;2.30;2.10;;;8.40;91.40;;;;;;5038076;28;20943;-54
2023/01/17 12:34:14;;;;;;;2.27;2.10;;;8.10;90.00;;;;;;5053051;28;20480;-51
2023/01/17 12:36:49;;;;;;;3.20;1.60;;;7.70;90.40;;;;;;5053552;28;20434;-51
2023/01/17 12:39:17;;;;;;;3.27;1.57;;;7.50;91.20;;;;;;5053561;28;20524;-51
2023/01/17 12:41:55;;;;;;;1.70;1.60;;;7.50;91.80;;;;;;5053036;28;20445;-51
2023/01/17 12:44:33;;;;;;;2.00;1.70;;;7.30;90.40;;;;;;5052973;28;20465;-51
2023/01/17 12:47:03;;;;;;;2.47;1.80;;;7.20;90.90;;;;;;5053036;28;20433;-53
2023/01/17 12:49:41;;;;;;;2.00;1.80;;;7.10;90.40;;;;;;5053506;28;20525;-52
2023/01/17 12:52:15;;;;;;;2.10;1.83;;;7.20;90.30;;;;;;5053099;28;20425;-52
2023/01/17 12:54:45;;;;;;;1.70;1.60;;;7.30;91.40;;;;;;5052583;28;20665;-52
2023/01/17 12:57:17;;;;;;;1.63;1.50;;;7.00;91.60;;;;;;5052906;28;20449;-52
2023/01/17 12:59:50;;;;;;;2.03;1.80;;;6.80;91.80;;;;;;5052911;28;20526;-52
2023/01/17 13:02:25;;;;;;;2.10;1.73;;;6.70;91.30;;;;;;5053112;28;20521;-52
2023/01/17 13:05:01;;;;;;;2.40;1.70;;;6.70;91.50;;;;;;5052490;28;20467;-52
2023/01/17 13:07:39;;;;;;;4.43;2.07;;;6.80;91.50;;;;;;5052952;28;20519;-51
2023/01/17 13:10:21;;;;;;;3.47;2.00;;;6.50;91.00;;;;;;5052793;28;20434;-52
2023/01/17 13:12:49;;;;;;;2.70;2.23;;;6.40;91.30;;;;;;5051931;28;20436;-52
2023/01/17 13:15:19;;;;;;;2.63;1.90;;;6.50;91.40;;;;;;5052712;28;20535;-52
2023/01/17 13:17:49;;;;;;;2.60;2.40;;;6.50;91.80;;;;;;5052738;28;20978;-52
2023/01/17 13:20:23;;;;;;;2.10;1.90;;;6.40;91.30;;;;;;5052982;28;20516;-52
2023/01/17 13:22:51;;;;;;;5.47;1.90;;;6.20;93.30;;;;;;5052534;28;20944;-52
2023/01/17 13:25:35;;;;;;;2.60;1.87;;;6.10;92.50;;;;;;5052964;28;20536;-53
2023/01/17 13:28:16;;;;;;;2.10;2.00;;;6.20;93.20;;;;;;5052827;28;20438;-53
2023/01/17 13:31:08;;;;;;;2.10;1.83;;;6.10;92.90;;;;;;5052860;28;20521;-52
2023/01/17 13:33:46;;;;;;;2.27;2.07;;;5.90;93.50;;;;;;5052728;28;20473;-52
2023/01/17 13:36:35;;;;;;;2.13;1.80;;;5.80;93.10;;;;;;5052691;28;20464;-52
2023/01/17 13:39:30;;;;;;;4.90;1.80;;;5.80;93.30;;;;;;5052559;28;20441;-53
2023/01/17 13:42:10;;;;;;;6.73;1.93;;;5.90;93.70;;;;;;5052677;28;20452;-53
2023/01/17 13:44:37;;;;;;;1.63;1.50;;;5.80;94.20;;;;;;5052651;28;20795;-52
2023/01/17 13:47:06;;;;;;;2.10;1.80;;;5.90;94.30;;;;;;5052578;28;20445;-52
2023/01/17 13:49:44;;;;;;;2.73;1.93;;;5.80;93.50;;;;;;5052718;28;20532;-53
2023/01/17 13:52:30;;;;;;;2.30;1.93;;;5.80;93.30;;;;;;5052520;28;20434;-53
2023/01/17 13:55:00;;;;;;;2.13;1.70;;;5.90;98.10;;;;;;5052141;28;20488;-52
2023/01/17 13:57:42;;;;;;;3.20;1.83;;;5.90;98.20;;;;;;5052438;28;20965;-53
2023/01/17 14:00:47;;;;;;;5.37;1.70;;;6.00;95.30;;;;;;5052763;28;20437;-53
2023/01/17 14:03:15;;;;;;;8.00;2.20;;;6.00;92.40;;;;;;5031332;28;20477;-53
2023/01/17 14:05:55;;;;;;;10.40;2.47;;;5.90;93.70;;;;;;5052269;28;20931;-59
2023/01/17 14:08:26;;;;;;;11.40;2.53;;;6.00;95.70;;;;;;5052231;28;20437;-53
2023/01/17 14:10:54;;;;;;;1.97;1.80;;;5.90;91.80;;;;;;5052338;28;20507;-53
2023/01/17 14:13:33;;;;;;;2.27;2.00;;;5.90;91.30;;;;;;5052104;28;20990;-53
2023/01/17 14:16:01;;;;;;;4.00;1.97;;;6.00;92.70;;;;;;5052161;28;20904;-52
2023/01/17 14:18:33;;;;;;;3.70;1.87;;;5.70;93.10;;;;;;5052233;28;20548;-53
2023/01/17 14:21:11;;;;;;;2.33;1.93;;;5.70;92.70;;;;;;5052247;28;20939;-53
2023/01/17 14:23:48;;;;;;;3.00;1.80;;;5.70;93.60;;;;;;5052410;28;20484;-53
2023/01/17 14:26:43;;;;;;;1.70;1.60;;;5.70;93.60;;;;;;5055770;28;20425;-53
2023/01/17 14:29:48;;;;;;;3.53;1.60;;;5.70;95.10;;;;;;5056290;28;20436;-53
2023/01/17 14:32:17;;;;;;;1.70;1.60;;;5.70;93.00;;;;;;5055695;28;20449;-53
2023/01/17 14:34:46;;;;;;;2.00;1.90;;;5.70;93.20;;;;;;5055607;28;20484;-53
2023/01/17 14:37:21;;;;;;;1.80;1.70;;;5.60;92.30;;;;;;5055812;28;20461;-52
2023/01/17 14:39:51;;;;;;;2.23;2.03;;;5.70;93.50;;;;;;5055579;28;20435;-52
2023/01/17 14:42:20;;;;;;;2.20;2.00;;;5.60;92.20;;;;;;5055394;28;20532;-52
2023/01/17 14:44:49;;;;;;;3.40;1.70;;;5.70;92.80;;;;;;5055108;28;20837;-52
2023/01/17 14:47:17;;;;;;;4.37;2.10;;;5.70;92.90;;;;;;5055333;28;20927;-51